createdAt,value
2023-06-19T00:00:00.217Z,997.1
2023-06-19T00:01:14.888Z,997.2
2023-06-19T00:02:29.566Z,997.2
2023-06-19T00:03:44.242Z,997.1
2023-06-19T00:04:58.908Z,997.1
2023-06-19T00:06:12.853Z,997.1
2023-06-19T00:07:27.331Z,997.2
2023-06-19T00:08:42.204Z,997.2
2023-06-19T00:09:56.674Z,997.2
2023-06-19T00:11:10.853Z,997.2
2023-06-19T00:12:25.530Z,997.2
2023-06-19T00:13:40.210Z,997.2
2023-06-19T00:14:54.878Z,997.1
2023-06-19T00:16:09.559Z,997.1
2023-06-19T00:17:23.489Z,997.1
2023-06-19T00:18:37.976Z,997.1
2023-06-19T00:19:52.839Z,997.1
2023-06-19T00:21:07.517Z,997.1
2023-06-19T00:22:21.984Z,997.1
2023-06-19T00:23:36.863Z,997.1
2023-06-19T00:24:51.539Z,997.2
2023-06-19T00:26:05.513Z,997.2
2023-06-19T00:27:19.457Z,997.2
2023-06-19T00:29:48.805Z,997.2
2023-06-19T00:31:03.291Z,997.2
2023-06-19T00:32:18.159Z,997.2
2023-06-19T00:33:32.837Z,997.2
2023-06-19T00:34:47.498Z,997.2
2023-06-19T00:36:02.177Z,997.2
2023-06-19T00:37:16.845Z,997.2
2023-06-19T00:38:31.325Z,997.2
2023-06-19T00:39:46.004Z,997.2
2023-06-19T00:41:00.868Z,997.2
2023-06-19T00:42:15.342Z,997.1
2023-06-19T00:43:29.479Z,997.1
2023-06-19T00:44:44.159Z,997.1
2023-06-19T00:45:58.834Z,997.1
2023-06-19T00:47:13.533Z,997.1
2023-06-19T00:48:28.174Z,997.1
2023-06-19T00:49:42.848Z,997.1
2023-06-19T00:50:57.525Z,997.1
2023-06-19T00:52:12.004Z,997.1
2023-06-19T00:54:41.552Z,997
2023-06-19T00:55:56.212Z,997
2023-06-19T00:58:25.569Z,997
2023-06-19T00:59:40.238Z,997
2023-06-19T01:00:54.934Z,997
2023-06-19T01:02:09.518Z,996.9
2023-06-19T01:03:24.382Z,996.9
2023-06-19T01:04:39.052Z,996.9
2023-06-19T01:05:53.535Z,996.8
2023-06-19T01:07:08.213Z,996.8
2023-06-19T01:08:23.082Z,996.8
2023-06-19T01:09:37.745Z,996.8
2023-06-19T01:10:52.421Z,996.8
2023-06-19T01:12:07.090Z,996.8
2023-06-19T01:13:21.568Z,996.7
2023-06-19T01:15:51.116Z,996.7
2023-06-19T01:17:05.788Z,996.7
2023-06-19T01:18:20.463Z,996.7
2023-06-19T01:20:49.799Z,996.6
2023-06-19T01:22:04.482Z,996.6
2023-06-19T01:23:19.153Z,996.6
2023-06-19T01:24:33.140Z,996.6
2023-06-19T01:25:47.807Z,996.6
2023-06-19T01:27:01.750Z,996.6
2023-06-19T01:29:31.096Z,996.6
2023-06-19T01:30:45.770Z,996.6
2023-06-19T01:32:00.442Z,996.6
2023-06-19T01:33:15.115Z,996.6
2023-06-19T01:34:29.792Z,996.6
2023-06-19T01:35:44.464Z,996.6
2023-06-19T01:38:13.819Z,996.6
2023-06-19T01:39:27.800Z,996.6
2023-06-19T01:41:56.410Z,996.6
2023-06-19T01:43:11.085Z,996.6
2023-06-19T01:44:25.758Z,996.6
2023-06-19T01:45:40.247Z,996.6
2023-06-19T01:46:55.107Z,996.6
2023-06-19T01:48:09.781Z,996.6
2023-06-19T01:50:39.128Z,996.5
2023-06-19T01:51:53.803Z,996.5
2023-06-19T01:53:08.273Z,996.5
2023-06-19T01:54:23.146Z,996.5
2023-06-19T01:55:37.634Z,996.4
2023-06-19T01:56:51.754Z,996.4
2023-06-19T01:58:06.243Z,996.4
2023-06-19T01:59:21.108Z,996.4
2023-06-19T02:00:35.597Z,996.4
2023-06-19T02:01:50.269Z,996.4
2023-06-19T02:03:04.941Z,996.4
2023-06-19T02:04:19.805Z,996.4
2023-06-19T02:05:34.476Z,996.4
2023-06-19T02:06:48.965Z,996.4
2023-06-19T02:08:03.767Z,996.4
2023-06-19T02:09:18.440Z,996.4
2023-06-19T02:10:33.073Z,996.3
2023-06-19T02:11:47.503Z,996.3
2023-06-19T02:13:01.419Z,996.3
2023-06-19T02:14:16.234Z,996.3
2023-06-19T02:15:30.672Z,996.3
2023-06-19T02:16:45.497Z,996.3
2023-06-19T02:18:00.111Z,996.3
2023-06-19T02:19:14.733Z,996.3
2023-06-19T02:20:29.162Z,996.2
2023-06-19T02:21:43.968Z,996.2
2023-06-19T02:22:58.588Z,996.2
2023-06-19T02:25:27.823Z,996.2
2023-06-19T02:26:42.259Z,996.2
2023-06-19T02:27:57.063Z,996.2
2023-06-19T02:29:11.689Z,996.3
2023-06-19T02:30:26.302Z,996.3
2023-06-19T02:31:39.994Z,996.3
2023-06-19T02:32:54.618Z,996.3
2023-06-19T02:34:09.431Z,996.3
2023-06-19T02:35:24.051Z,996.3
2023-06-19T02:36:38.469Z,996.3
2023-06-19T02:37:53.089Z,996.3
2023-06-19T02:39:07.225Z,996.3
2023-06-19T02:40:21.597Z,996.3
2023-06-19T02:42:51.074Z,996.3
2023-06-19T02:44:05.701Z,996.3
2023-06-19T02:45:19.583Z,996.3
2023-06-19T02:46:34.202Z,996.3
2023-06-19T02:47:48.817Z,996.3
2023-06-19T02:49:03.447Z,996.3
2023-06-19T02:50:18.070Z,996.3
2023-06-19T02:51:32.679Z,996.3
2023-06-19T02:52:47.305Z,996.3
2023-06-19T02:54:01.925Z,996.3
2023-06-19T02:55:16.543Z,996.3
2023-06-19T02:56:31.159Z,996.3
2023-06-19T02:57:45.775Z,996.3
2023-06-19T03:00:15.017Z,996.3
2023-06-19T03:01:28.711Z,996.3
2023-06-19T03:02:42.840Z,996.3
2023-06-19T03:03:57.457Z,996.3
2023-06-19T03:05:12.070Z,996.2
2023-06-19T03:06:26.700Z,996.2
2023-06-19T03:07:41.073Z,996.2
2023-06-19T03:08:55.200Z,996.2
2023-06-19T03:10:09.818Z,996.2
2023-06-19T03:11:24.448Z,996.2
2023-06-19T03:12:38.816Z,996.2
2023-06-19T03:13:53.678Z,996.2
2023-06-19T03:15:07.608Z,996.2
2023-06-19T03:16:21.993Z,996.2
2023-06-19T03:17:36.866Z,996.2
2023-06-19T03:18:50.736Z,996.2
2023-06-19T03:20:05.351Z,996.2
2023-06-19T03:21:19.731Z,996.2
2023-06-19T03:22:34.588Z,996.2
2023-06-19T03:23:49.222Z,996.2
2023-06-19T03:25:03.584Z,996.2
2023-06-19T03:26:18.457Z,996.2
2023-06-19T03:27:33.072Z,996.3
2023-06-19T03:28:47.688Z,996.3
2023-06-19T03:30:02.314Z,996.3
2023-06-19T03:31:16.932Z,996.3
2023-06-19T03:32:31.550Z,996.3
2023-06-19T03:33:46.170Z,996.3
2023-06-19T03:35:00.794Z,996.3
2023-06-19T03:36:15.409Z,996.3
2023-06-19T03:37:30.023Z,996.3
2023-06-19T03:38:44.402Z,996.3
2023-06-19T03:39:59.269Z,996.2
2023-06-19T03:41:12.900Z,996.2
2023-06-19T03:43:42.390Z,996.2
2023-06-19T03:44:57.018Z,996.2
2023-06-19T03:46:11.633Z,996.2
2023-06-19T03:47:26.001Z,996.2
2023-06-19T03:48:40.637Z,996.2
2023-06-19T03:49:55.488Z,996.2
2023-06-19T03:52:24.731Z,996.2
2023-06-19T03:53:39.346Z,996.2
2023-06-19T03:54:53.728Z,996.2
2023-06-19T03:57:22.966Z,996.3
2023-06-19T03:58:37.587Z,996.3
2023-06-19T03:59:51.754Z,996.3
2023-06-19T04:01:06.378Z,996.3
2023-06-19T04:02:21.003Z,996.3
2023-06-19T04:03:35.639Z,996.4
2023-06-19T04:04:50.230Z,996.4
2023-06-19T04:06:04.860Z,996.4
2023-06-19T04:07:19.469Z,996.3
2023-06-19T04:08:33.852Z,996.4
2023-06-19T04:09:48.710Z,996.4
2023-06-19T04:11:03.086Z,996.3
2023-06-19T04:12:17.716Z,996.3
2023-06-19T04:13:32.570Z,996.3
2023-06-19T04:16:01.813Z,996.3
2023-06-19T04:17:16.183Z,996.3
2023-06-19T04:18:30.317Z,996.3
2023-06-19T04:19:44.936Z,996.3
2023-06-19T04:20:59.557Z,996.3
2023-06-19T04:22:13.926Z,996.3
2023-06-19T04:23:28.796Z,996.3
2023-06-19T04:24:43.173Z,996.3
2023-06-19T04:25:58.029Z,996.3
2023-06-19T04:27:11.965Z,996.3
2023-06-19T04:28:25.849Z,996.3
2023-06-19T04:29:40.475Z,996.3
2023-06-19T04:30:54.850Z,996.4
2023-06-19T04:32:09.705Z,996.4
2023-06-19T04:33:24.092Z,996.4
2023-06-19T04:35:53.572Z,996.4
2023-06-19T04:37:08.184Z,996.4
2023-06-19T04:38:22.804Z,996.4
2023-06-19T04:39:37.426Z,996.4
2023-06-19T04:40:52.045Z,996.4
2023-06-19T04:42:06.419Z,996.4
2023-06-19T04:43:21.032Z,996.4
2023-06-19T04:44:34.932Z,996.4
2023-06-19T04:45:49.786Z,996.4
2023-06-19T04:47:04.415Z,996.4
2023-06-19T04:48:18.782Z,996.4
2023-06-19T04:49:33.652Z,996.4
2023-06-19T04:50:48.267Z,996.4
2023-06-19T04:52:02.652Z,996.4
2023-06-19T04:53:17.504Z,996.4
2023-06-19T04:54:31.894Z,996.4
2023-06-19T04:55:46.744Z,996.4
2023-06-19T04:57:01.128Z,996.4
2023-06-19T04:58:15.989Z,996.4
2023-06-19T05:01:59.843Z,996.4
2023-06-19T05:03:14.214Z,996.4
2023-06-19T05:04:29.076Z,996.4
2023-06-19T05:05:42.725Z,996.4
2023-06-19T05:06:57.346Z,996.4
2023-06-19T05:08:12.202Z,996.4
2023-06-19T05:09:26.826Z,996.4
2023-06-19T05:10:41.448Z,996.4
2023-06-19T05:11:56.066Z,996.4
2023-06-19T05:13:10.684Z,996.4
2023-06-19T05:14:25.057Z,996.4
2023-06-19T05:15:39.929Z,996.4
2023-06-19T05:16:54.539Z,996.4
2023-06-19T05:19:23.789Z,996.4
2023-06-19T05:20:38.166Z,996.4
2023-06-19T05:21:52.326Z,996.4
2023-06-19T05:23:06.706Z,996.4
2023-06-19T05:24:21.568Z,996.4
2023-06-19T05:25:35.227Z,996.4
2023-06-19T05:26:49.832Z,996.4
2023-06-19T05:28:04.699Z,996.4
2023-06-19T05:29:19.311Z,996.4
2023-06-19T05:30:33.698Z,996.4
2023-06-19T05:31:48.552Z,996.4
2023-06-19T05:33:03.182Z,996.4
2023-06-19T05:34:17.106Z,996.4
2023-06-19T05:35:31.722Z,996.4
2023-06-19T05:36:46.347Z,996.4
2023-06-19T05:38:00.240Z,996.5
2023-06-19T05:39:14.616Z,996.5
2023-06-19T05:40:29.237Z,996.5
2023-06-19T05:41:44.086Z,996.5
2023-06-19T05:42:58.708Z,996.6
2023-06-19T05:45:27.959Z,996.5
2023-06-19T05:46:42.564Z,996.5
2023-06-19T05:47:56.944Z,996.5
2023-06-19T05:49:11.556Z,996.5
2023-06-19T05:50:26.419Z,996.5
2023-06-19T05:51:40.793Z,996.5
2023-06-19T05:52:55.417Z,996.5
2023-06-19T05:54:09.554Z,996.6
2023-06-19T05:55:23.927Z,996.6
2023-06-19T05:56:38.787Z,996.6
2023-06-19T05:57:53.408Z,996.6
2023-06-19T05:59:07.784Z,996.6
2023-06-19T06:00:21.957Z,996.6
2023-06-19T06:01:36.342Z,996.7
2023-06-19T06:02:50.468Z,996.7
2023-06-19T06:04:05.082Z,996.7
2023-06-19T06:05:19.702Z,996.7
2023-06-19T06:07:48.703Z,996.7
2023-06-19T06:09:03.557Z,996.7
2023-06-19T06:10:17.939Z,996.7
2023-06-19T06:11:32.803Z,996.7
2023-06-19T06:12:47.416Z,996.7
2023-06-19T06:14:02.043Z,996.8
2023-06-19T06:15:16.657Z,996.8
2023-06-19T06:16:31.275Z,996.9
2023-06-19T06:17:45.897Z,996.9
2023-06-19T06:19:00.271Z,996.9
2023-06-19T06:20:14.405Z,996.8
2023-06-19T06:21:28.783Z,996.8
2023-06-19T06:22:43.415Z,996.8
2023-06-19T06:25:12.885Z,996.8
2023-06-19T06:26:27.500Z,996.8
2023-06-19T06:27:42.118Z,996.8
2023-06-19T06:28:56.733Z,996.9
2023-06-19T06:30:11.360Z,996.9
2023-06-19T06:31:25.058Z,996.9
2023-06-19T06:32:39.907Z,996.9
2023-06-19T06:33:53.800Z,996.9
2023-06-19T06:35:08.411Z,996.9
2023-06-19T06:36:22.788Z,996.9
2023-06-19T06:37:37.653Z,996.9
2023-06-19T06:38:52.279Z,996.9
2023-06-19T06:40:06.645Z,996.9
2023-06-19T06:41:21.283Z,996.9
2023-06-19T06:42:35.884Z,996.9
2023-06-19T06:43:50.748Z,997
2023-06-19T06:45:05.122Z,997
2023-06-19T06:46:19.995Z,997
2023-06-19T06:47:34.607Z,997
2023-06-19T06:48:49.227Z,997
2023-06-19T06:50:03.617Z,997.1
2023-06-19T06:51:18.219Z,997.1
2023-06-19T06:52:33.090Z,997.1
2023-06-19T06:55:02.325Z,997.1
2023-06-19T06:56:16.948Z,997.2
2023-06-19T06:57:31.316Z,997.2
2023-06-19T06:58:45.944Z,997.3
2023-06-19T07:00:00.069Z,997.3
2023-06-19T07:01:14.688Z,997.3
2023-06-19T07:02:29.074Z,997.3
2023-06-19T07:03:43.926Z,997.3
2023-06-19T07:04:58.550Z,997.3
2023-06-19T07:06:12.938Z,997.3
2023-06-19T07:07:27.551Z,997.3
2023-06-19T07:08:42.412Z,997.3
2023-06-19T07:09:57.024Z,997.3
2023-06-19T07:11:11.652Z,997.3
2023-06-19T07:12:26.265Z,997.3
2023-06-19T07:13:40.637Z,997.3
2023-06-19T07:14:55.500Z,997.3
2023-06-19T07:16:09.387Z,997.2
2023-06-19T07:17:24.007Z,997.2
2023-06-19T07:18:37.665Z,997.3
2023-06-19T07:19:52.272Z,997.3
2023-06-19T07:21:07.140Z,997.4
2023-06-19T07:22:21.757Z,997.3
2023-06-19T07:23:36.380Z,997.4
2023-06-19T07:24:50.991Z,997.4
2023-06-19T07:26:05.612Z,997.4
2023-06-19T07:27:20.237Z,997.4
2023-06-19T07:28:34.623Z,997.3
2023-06-19T07:29:49.470Z,997.3
2023-06-19T07:31:04.084Z,997.3
2023-06-19T07:32:18.708Z,997.3
2023-06-19T07:33:33.087Z,997.3
2023-06-19T07:34:47.949Z,997.3
2023-06-19T07:36:01.837Z,997.3
2023-06-19T07:37:16.448Z,997.3
2023-06-19T07:38:31.070Z,997.3
2023-06-19T07:39:45.691Z,997.3
2023-06-19T07:42:14.952Z,997.3
2023-06-19T07:43:29.551Z,997.3
2023-06-19T07:44:44.168Z,997.3
2023-06-19T07:45:58.547Z,997.3
2023-06-19T07:47:13.412Z,997.3
2023-06-19T07:48:28.021Z,997.3
2023-06-19T07:49:42.650Z,997.3
2023-06-19T07:50:57.263Z,997.3
2023-06-19T07:52:11.154Z,997.2
2023-06-19T07:53:25.777Z,997.2
2023-06-19T07:54:40.157Z,997.3
2023-06-19T07:55:55.014Z,997.3
2023-06-19T07:57:09.635Z,997.3
2023-06-19T07:58:24.011Z,997.3
2023-06-19T07:59:38.890Z,997.3
2023-06-19T08:00:53.489Z,997.2
2023-06-19T08:02:07.883Z,997.2
2023-06-19T08:03:22.722Z,997.2
2023-06-19T08:04:37.366Z,997.2
2023-06-19T08:05:51.968Z,997.2
2023-06-19T08:07:06.582Z,997.2
2023-06-19T08:08:20.979Z,997.3
2023-06-19T08:09:35.098Z,997.3
2023-06-19T08:10:49.706Z,997.3
2023-06-19T08:12:04.107Z,997.3
2023-06-19T08:13:18.950Z,997.3
2023-06-19T08:14:33.582Z,997.2
2023-06-19T08:15:47.954Z,997.2
2023-06-19T08:17:02.577Z,997.2
2023-06-19T08:18:17.196Z,997.2
2023-06-19T08:19:32.049Z,997.2
2023-06-19T08:20:46.668Z,997.2
2023-06-19T08:22:01.287Z,997.2
2023-06-19T08:23:15.909Z,997.2
2023-06-19T08:24:30.518Z,997.2
2023-06-19T08:25:45.142Z,997.2
2023-06-19T08:26:59.032Z,997.2
2023-06-19T08:28:13.648Z,997.2
2023-06-19T08:29:28.047Z,997.2
2023-06-19T08:30:42.889Z,997.1
2023-06-19T08:31:57.506Z,997.1
2023-06-19T08:33:12.130Z,997.1
2023-06-19T08:34:26.744Z,997.1
2023-06-19T08:35:41.360Z,997
2023-06-19T08:36:55.984Z,997
2023-06-19T08:38:10.375Z,997
2023-06-19T08:39:25.223Z,997
2023-06-19T08:40:39.839Z,997
2023-06-19T08:41:54.466Z,996.9
2023-06-19T08:43:08.123Z,996.9
2023-06-19T08:44:22.969Z,996.8
2023-06-19T08:45:37.591Z,996.8
2023-06-19T08:46:51.980Z,996.8
2023-06-19T08:48:06.829Z,996.8
2023-06-19T08:49:21.451Z,996.8
2023-06-19T08:51:50.445Z,996.8
2023-06-19T08:53:05.065Z,996.9
2023-06-19T08:54:19.688Z,996.9
2023-06-19T08:55:34.311Z,996.9
2023-06-19T08:56:49.160Z,997
2023-06-19T08:58:03.557Z,997
2023-06-19T08:59:17.676Z,997
2023-06-19T09:00:32.049Z,997
2023-06-19T09:01:46.912Z,997
2023-06-19T09:03:01.534Z,997.1
2023-06-19T09:04:16.153Z,997.1
2023-06-19T09:05:30.764Z,997.1
2023-06-19T09:06:45.384Z,997.1
2023-06-19T09:08:00.006Z,997
2023-06-19T09:09:14.628Z,997
2023-06-19T09:10:29.247Z,997
2023-06-19T09:11:43.872Z,997
2023-06-19T09:12:58.249Z,997
2023-06-19T09:14:13.109Z,996.9
2023-06-19T09:15:26.989Z,996.9
2023-06-19T09:16:41.611Z,996.9
2023-06-19T09:17:56.229Z,996.9
2023-06-19T09:19:10.849Z,996.9
2023-06-19T09:20:25.474Z,996.9
2023-06-19T09:21:39.867Z,996.9
2023-06-19T09:22:54.714Z,996.9
2023-06-19T09:24:09.327Z,996.9
2023-06-19T09:25:23.711Z,996.8
2023-06-19T09:26:38.337Z,996.8
2023-06-19T09:27:53.186Z,996.8
2023-06-19T09:29:07.807Z,996.7
2023-06-19T09:30:22.187Z,996.7
2023-06-19T09:31:36.317Z,996.7
2023-06-19T09:32:50.935Z,996.7
2023-06-19T09:34:05.551Z,996.7
2023-06-19T09:35:20.174Z,996.8
2023-06-19T09:36:34.800Z,996.7
2023-06-19T09:37:49.416Z,996.8
2023-06-19T09:39:04.037Z,996.8
2023-06-19T09:40:18.657Z,996.8
2023-06-19T09:41:33.272Z,996.7
2023-06-19T09:42:47.665Z,996.7
2023-06-19T09:45:17.129Z,996.6
2023-06-19T09:46:31.748Z,996.6
2023-06-19T09:47:45.409Z,996.6
2023-06-19T09:49:00.256Z,996.6
2023-06-19T09:50:14.876Z,996.6
2023-06-19T09:51:29.506Z,996.6
2023-06-19T09:52:43.882Z,996.6
2023-06-19T09:53:58.737Z,996.6
2023-06-19T09:55:13.358Z,996.5
2023-06-19T09:57:42.594Z,996.5
2023-06-19T10:00:11.607Z,996.6
2023-06-19T10:01:25.542Z,996.5
2023-06-19T10:02:40.381Z,996.6
2023-06-19T10:03:54.269Z,996.6
2023-06-19T10:06:23.519Z,996.5
2023-06-19T10:07:38.136Z,996.5
2023-06-19T10:08:52.527Z,996.5
2023-06-19T10:10:07.139Z,996.5
2023-06-19T10:11:21.987Z,996.5
2023-06-19T10:12:36.372Z,996.5
2023-06-19T10:15:05.853Z,996.5
2023-06-19T10:16:20.475Z,996.5
2023-06-19T10:17:34.401Z,996.5
2023-06-19T10:18:48.294Z,996.6
2023-06-19T10:20:02.908Z,996.6
2023-06-19T10:21:17.294Z,996.6
2023-06-19T10:22:31.925Z,996.6
2023-06-19T10:23:46.766Z,996.6
2023-06-19T10:25:01.392Z,996.6
2023-06-19T10:26:16.011Z,996.6
2023-06-19T10:27:30.626Z,996.7
2023-06-19T10:28:45.252Z,996.6
2023-06-19T10:29:59.864Z,996.6
2023-06-19T10:31:13.575Z,996.6
2023-06-19T10:32:27.682Z,996.6
2023-06-19T10:33:42.078Z,996.6
2023-06-19T10:34:56.687Z,996.6
2023-06-19T10:36:11.304Z,996.6
2023-06-19T10:37:26.167Z,996.6
2023-06-19T10:38:40.784Z,996.6
2023-06-19T10:39:55.179Z,996.6
2023-06-19T10:41:10.025Z,996.6
2023-06-19T10:42:24.642Z,996.6
2023-06-19T10:43:38.351Z,996.5
2023-06-19T10:44:52.461Z,996.5
2023-06-19T10:46:07.079Z,996.5
2023-06-19T10:47:21.479Z,996.5
2023-06-19T10:48:36.092Z,996.4
2023-06-19T10:49:50.938Z,996.4
2023-06-19T10:51:05.563Z,996.4
2023-06-19T10:52:20.174Z,996.4
2023-06-19T10:53:34.577Z,996.4
2023-06-19T10:54:49.417Z,996.4
2023-06-19T10:56:04.038Z,996.4
2023-06-19T10:57:18.436Z,996.4
2023-06-19T10:58:33.277Z,996.3
2023-06-19T10:59:47.894Z,996.3
2023-06-19T11:01:02.515Z,996.3
2023-06-19T11:02:17.136Z,996.3
2023-06-19T11:03:31.029Z,996.3
2023-06-19T11:04:45.410Z,996.3
2023-06-19T11:06:00.262Z,996.3
2023-06-19T11:07:14.884Z,996.3
2023-06-19T11:08:29.503Z,996.3
2023-06-19T11:09:44.118Z,996.3
2023-06-19T11:10:58.740Z,996.3
2023-06-19T11:12:13.366Z,996.3
2023-06-19T11:13:27.764Z,996.3
2023-06-19T11:14:42.600Z,996.3
2023-06-19T11:15:57.231Z,996.3
2023-06-19T11:17:11.845Z,996.3
2023-06-19T11:18:26.466Z,996.3
2023-06-19T11:20:55.705Z,996.4
2023-06-19T11:22:10.328Z,996.4
2023-06-19T11:23:24.946Z,996.4
2023-06-19T11:24:39.562Z,996.4
2023-06-19T11:25:54.175Z,996.4
2023-06-19T11:27:08.074Z,996.4
2023-06-19T11:29:37.314Z,996.4
2023-06-19T11:30:51.694Z,996.3
2023-06-19T11:32:05.822Z,996.3
2023-06-19T11:33:20.440Z,996.3
2023-06-19T11:34:35.056Z,996.4
2023-06-19T11:35:49.682Z,996.4
2023-06-19T11:37:04.303Z,996.4
2023-06-19T11:38:18.911Z,996.4
2023-06-19T11:39:33.543Z,996.3
2023-06-19T11:42:02.781Z,996.3
2023-06-19T11:43:16.706Z,996.3
2023-06-19T11:44:31.106Z,996.3
2023-06-19T11:45:44.993Z,996.3
2023-06-19T11:46:59.839Z,996.4
2023-06-19T11:48:14.456Z,996.4
2023-06-19T11:49:29.082Z,996.4
2023-06-19T11:50:43.688Z,996.4
2023-06-19T11:51:58.316Z,996.4
2023-06-19T11:53:12.932Z,996.5
2023-06-19T11:54:27.557Z,996.5
2023-06-19T11:55:41.488Z,996.5
2023-06-19T11:56:56.101Z,996.5
2023-06-19T11:58:10.491Z,996.5
2023-06-19T11:59:25.345Z,996.5
2023-06-19T12:00:39.966Z,996.5
2023-06-19T12:01:54.362Z,996.4
2023-06-19T12:03:09.201Z,996.5
2023-06-19T12:04:23.824Z,996.5
2023-06-19T12:05:38.442Z,996.5
2023-06-19T12:06:52.846Z,996.5
2023-06-19T12:08:07.680Z,996.5
2023-06-19T12:09:22.300Z,996.5
2023-06-19T12:10:36.917Z,996.5
2023-06-19T12:13:05.206Z,996.4
2023-06-19T12:14:20.048Z,996.4
2023-06-19T12:15:34.674Z,996.4
2023-06-19T12:16:49.290Z,996.4
2023-06-19T12:18:03.902Z,996.4
2023-06-19T12:19:18.307Z,996.4
2023-06-19T12:20:33.151Z,996.4
2023-06-19T12:21:47.769Z,996.4
2023-06-19T12:23:02.395Z,996.4
2023-06-19T12:25:31.622Z,996.3
2023-06-19T12:26:46.242Z,996.3
2023-06-19T12:28:00.141Z,996.3
2023-06-19T12:29:14.760Z,996.2
2023-06-19T12:30:29.374Z,996.4
2023-06-19T12:31:43.995Z,996.4
2023-06-19T12:32:58.380Z,996.4
2023-06-19T12:34:13.231Z,996.4
2023-06-19T12:35:27.853Z,996.4
2023-06-19T12:39:11.453Z,996.4
2023-06-19T12:40:26.101Z,996.4
2023-06-19T12:41:40.733Z,996.4
2023-06-19T12:42:55.578Z,996.4
2023-06-19T12:44:10.196Z,996.4
2023-06-19T12:45:24.817Z,996.4
2023-06-19T12:47:54.049Z,996.4
2023-06-19T12:49:08.441Z,996.4
2023-06-19T12:50:23.060Z,996.3
2023-06-19T12:51:37.906Z,996.3
2023-06-19T12:52:52.523Z,996.3
2023-06-19T12:54:06.922Z,996.3
2023-06-19T12:55:21.538Z,996.3
2023-06-19T12:56:35.702Z,996.3
2023-06-19T12:57:50.312Z,996.3
2023-06-19T12:59:04.201Z,996.2
2023-06-19T13:00:18.825Z,996.2
2023-06-19T13:01:33.442Z,996.2
2023-06-19T13:02:48.060Z,996.2
2023-06-19T13:04:02.456Z,996.2
2023-06-19T13:05:17.306Z,996.2
2023-06-19T13:06:31.924Z,996.2
2023-06-19T13:09:01.162Z,996.1
2023-06-19T13:10:15.780Z,996.1
2023-06-19T13:11:30.406Z,996.1
2023-06-19T13:12:45.023Z,996.2
2023-06-19T13:13:59.647Z,996.1
2023-06-19T13:15:14.259Z,996.2
2023-06-19T13:16:28.152Z,996.2
2023-06-19T13:17:42.776Z,996.1
2023-06-19T13:18:57.385Z,996.1
2023-06-19T13:20:12.006Z,996.1
2023-06-19T13:21:26.632Z,996.1
2023-06-19T13:22:41.252Z,996.1
2023-06-19T13:23:55.877Z,996.1
2023-06-19T13:26:24.883Z,996.1
2023-06-19T13:27:39.506Z,996.1
2023-06-19T13:28:54.349Z,996.1
2023-06-19T13:30:08.970Z,996
2023-06-19T13:31:23.591Z,996.1
2023-06-19T13:33:51.881Z,996
2023-06-19T13:35:06.718Z,996
2023-06-19T13:36:21.336Z,996
2023-06-19T13:37:35.964Z,996
2023-06-19T13:38:50.362Z,995.9
2023-06-19T13:40:05.192Z,995.9
2023-06-19T13:41:19.809Z,995.9
2023-06-19T13:42:34.429Z,996
2023-06-19T13:43:49.048Z,996
2023-06-19T13:45:03.692Z,996
2023-06-19T13:46:18.297Z,995.9
2023-06-19T13:47:32.698Z,996
2023-06-19T13:48:47.528Z,996
2023-06-19T13:50:01.939Z,996
2023-06-19T13:51:16.774Z,996
2023-06-19T13:52:31.393Z,996
2023-06-19T13:53:46.007Z,996
2023-06-19T13:55:00.635Z,996
2023-06-19T13:56:15.249Z,996
2023-06-19T13:57:29.876Z,996
2023-06-19T13:58:43.801Z,996
2023-06-19T13:59:58.191Z,996
2023-06-19T14:01:13.044Z,996
2023-06-19T14:02:26.923Z,996
2023-06-19T14:03:41.544Z,996
2023-06-19T14:04:55.936Z,996
2023-06-19T14:06:10.789Z,996
2023-06-19T14:07:25.407Z,996
2023-06-19T14:09:54.649Z,996
2023-06-19T14:11:09.036Z,996
2023-06-19T14:12:23.890Z,996
2023-06-19T14:13:38.292Z,996
2023-06-19T14:14:53.128Z,996
2023-06-19T14:16:07.743Z,996
2023-06-19T14:17:22.151Z,996
2023-06-19T14:18:36.254Z,996
2023-06-19T14:19:50.880Z,996
2023-06-19T14:21:05.502Z,996
2023-06-19T14:24:49.134Z,996
2023-06-19T14:26:03.744Z,996
2023-06-19T14:27:18.607Z,996
2023-06-19T14:28:32.517Z,996
2023-06-19T14:29:47.143Z,996
2023-06-19T14:32:15.437Z,996
2023-06-19T14:33:30.057Z,996
2023-06-19T14:34:44.673Z,996
2023-06-19T14:35:59.511Z,996
2023-06-19T14:37:14.131Z,996
2023-06-19T14:38:28.533Z,996
2023-06-19T14:40:57.986Z,996
2023-06-19T14:42:12.610Z,996
2023-06-19T14:43:27.231Z,996
2023-06-19T14:44:41.159Z,996
2023-06-19T14:45:55.777Z,996.1
2023-06-19T14:47:10.400Z,996
2023-06-19T14:48:25.012Z,996
2023-06-19T14:49:39.424Z,996
2023-06-19T14:50:54.258Z,996
2023-06-19T14:52:08.661Z,996
2023-06-19T14:53:22.766Z,996.1
2023-06-19T14:55:51.795Z,996.1
2023-06-19T14:57:06.398Z,996.1
2023-06-19T14:58:21.034Z,996.1
2023-06-19T14:59:35.646Z,996.1
2023-06-19T15:00:50.491Z,996.1
2023-06-19T15:02:05.119Z,996.1
2023-06-19T15:04:34.343Z,996
2023-06-19T15:05:48.968Z,996
2023-06-19T15:07:03.365Z,996
2023-06-19T15:08:17.976Z,996
2023-06-19T15:09:31.880Z,996
2023-06-19T15:10:46.502Z,996
2023-06-19T15:12:01.335Z,996
2023-06-19T15:13:15.727Z,996
2023-06-19T15:14:30.343Z,996
2023-06-19T15:15:44.280Z,996
2023-06-19T15:16:58.177Z,996.1
2023-06-19T15:18:12.789Z,996
2023-06-19T15:19:27.622Z,996
2023-06-19T15:20:42.037Z,996
2023-06-19T15:21:56.867Z,996
2023-06-19T15:24:26.101Z,996
2023-06-19T15:25:40.504Z,996
2023-06-19T15:26:55.125Z,996
2023-06-19T15:28:09.740Z,996
2023-06-19T15:29:24.359Z,996
2023-06-19T15:30:39.209Z,996
2023-06-19T15:31:53.817Z,996
2023-06-19T15:33:08.235Z,996
2023-06-19T15:34:23.063Z,996
2023-06-19T15:35:36.732Z,996
2023-06-19T15:36:51.578Z,996
2023-06-19T15:38:42.000Z,996
2023-06-19T15:39:20.598Z,996
2023-06-19T15:40:35.207Z,996
2023-06-19T15:43:03.814Z,996
2023-06-19T15:44:18.428Z,996
2023-06-19T15:45:32.617Z,996
2023-06-19T15:46:47.006Z,996
2023-06-19T15:48:01.853Z,996
2023-06-19T15:49:16.263Z,996
2023-06-19T15:50:31.089Z,996
2023-06-19T15:51:45.705Z,995.9
2023-06-19T15:53:00.125Z,995.9
2023-06-19T15:54:14.948Z,995.9
2023-06-19T15:55:29.352Z,995.9
2023-06-19T15:56:43.463Z,995.9
2023-06-19T15:59:12.475Z,995.9
2023-06-19T16:00:27.313Z,995.8
2023-06-19T16:01:41.715Z,995.8
2023-06-19T16:02:56.337Z,995.8
2023-06-19T16:04:11.180Z,995.8
2023-06-19T16:05:25.571Z,995.8
2023-06-19T16:06:40.192Z,995.8
2023-06-19T16:07:55.033Z,995.8
2023-06-19T16:09:09.658Z,995.8
2023-06-19T16:10:24.282Z,995.8
2023-06-19T16:12:52.619Z,995.8
2023-06-19T16:14:07.446Z,995.8
2023-06-19T16:15:21.986Z,995.8
2023-06-19T16:17:51.227Z,995.8
2023-06-19T16:19:05.841Z,995.8
2023-06-19T16:20:20.472Z,995.8
2023-06-19T16:21:35.086Z,995.8
2023-06-19T16:22:48.935Z,995.8
2023-06-19T16:25:18.435Z,995.8
2023-06-19T16:26:32.828Z,995.7
2023-06-19T16:27:47.466Z,995.7
2023-06-19T16:29:02.078Z,995.7
2023-06-19T16:30:16.926Z,995.7
2023-06-19T16:31:31.524Z,995.7
2023-06-19T16:32:45.944Z,995.7
2023-06-19T16:34:00.768Z,995.7
2023-06-19T16:35:15.188Z,995.7
2023-06-19T16:38:59.245Z,995.7
2023-06-19T16:40:13.132Z,995.8
2023-06-19T16:42:42.155Z,995.8
2023-06-19T16:43:57.000Z,995.8
2023-06-19T16:45:11.392Z,995.8
2023-06-19T16:46:26.022Z,995.8
2023-06-19T16:47:40.854Z,995.8
2023-06-19T16:48:55.267Z,995.8
2023-06-19T16:50:09.889Z,995.8
2023-06-19T16:51:24.722Z,995.7
2023-06-19T16:52:39.125Z,995.7
2023-06-19T16:53:53.735Z,995.7
2023-06-19T16:55:08.360Z,995.7
2023-06-19T16:56:23.196Z,995.7
2023-06-19T16:57:37.591Z,995.7
2023-06-19T17:00:06.836Z,995.7
2023-06-19T17:01:21.674Z,995.7
2023-06-19T17:02:36.073Z,995.7
2023-06-19T17:03:50.172Z,995.7
2023-06-19T17:05:04.795Z,995.7
2023-06-19T17:06:19.415Z,995.7
2023-06-19T17:07:33.829Z,995.7
2023-06-19T17:08:47.964Z,995.7
2023-06-19T17:10:02.583Z,995.7
2023-06-19T17:11:16.988Z,995.7
2023-06-19T17:12:31.097Z,995.7
2023-06-19T17:13:45.717Z,995.7
2023-06-19T17:15:00.334Z,995.7
2023-06-19T17:16:14.747Z,995.7
2023-06-19T17:17:29.569Z,995.7
2023-06-19T17:18:44.198Z,995.7
2023-06-19T17:19:58.810Z,995.7
2023-06-19T17:21:12.740Z,995.7
2023-06-19T17:22:27.366Z,995.7